Time;durP1;ratioP1;P1;durP2;ratioP2;P2;SDS_P1;SDS_P2;PMS_P1;PMS_P2;Temp;Humidity;BMP_temperature;BMP_pressure;BME280_temperature;BME280_humidity;BME280_pressure;Samples;Min_cycle;Max_cycle;Signal;HPM_P1;HPM_P2
2022/09/22 00:01:02;;;;;;;5.38;3.67;;;;;;;18.41;48.65;93981.13;5053376;28;20426;-88
2022/09/22 00:03:32;;;;;;;5.13;3.80;;;;;;;18.42;48.50;93982.63;5069318;28;20044;-88
2022/09/22 00:06:02;;;;;;;4.63;3.72;;;;;;;18.40;48.69;93980.38;5053582;28;20055;-88
2022/09/22 00:08:29;;;;;;;5.13;3.80;;;;;;;18.38;48.42;93982.91;5051980;28;20059;-88
2022/09/22 00:11:00;;;;;;;4.97;4.07;;;;;;;18.37;48.61;93977.91;5086373;28;20379;-88
2022/09/22 00:13:25;;;;;;;5.05;3.63;;;;;;;18.39;48.87;93980.91;5052284;28;20420;-88
2022/09/22 00:15:51;;;;;;;5.63;3.70;;;;;;;18.42;48.33;93982.63;5085750;28;20048;-88
2022/09/22 00:18:16;;;;;;;5.28;3.83;;;;;;;18.38;48.60;93979.41;5065973;28;20044;-88
2022/09/22 00:20:42;;;;;;;5.90;3.67;;;;;;;18.37;48.57;93984.13;5054391;28;20032;-89
2022/09/22 00:23:07;;;;;;;4.82;3.72;;;;;;;18.39;48.59;93980.91;5068525;28;20029;-88
2022/09/22 00:25:32;;;;;;;4.85;3.50;;;;;;;18.36;48.84;93977.16;5069975;28;20044;-88
2022/09/22 00:27:58;;;;;;;6.00;3.97;;;;;;;18.41;48.28;93978.41;5034880;28;20470;-89
2022/09/22 00:30:23;;;;;;;4.40;3.90;;;;;;;18.38;48.48;93979.41;5037735;28;20039;-88
2022/09/22 00:32:49;;;;;;;5.55;3.90;;;;;;;18.38;48.70;93980.16;5080991;28;20044;-88
2022/09/22 00:35:14;;;;;;;5.22;3.63;;;;;;;18.39;48.47;93980.91;5058757;28;20036;-88
2022/09/22 00:37:40;;;;;;;5.55;3.72;;;;;;;18.40;48.42;93969.44;5032361;28;20047;-88
2022/09/22 00:40:05;;;;;;;4.15;3.50;;;;;;;18.40;48.93;93972.16;5032714;28;20405;-88
2022/09/22 00:42:31;;;;;;;4.53;3.72;;;;;;;18.39;48.23;93967.22;5067157;28;20110;-89
2022/09/22 00:44:56;;;;;;;3.72;3.13;;;;;;;18.38;48.36;93963.72;5042452;28;20047;-89
2022/09/22 00:47:40;;;;;;;4.60;3.10;;;;;;;18.36;48.67;93963.47;5073349;28;20035;-88
2022/09/22 00:50:06;;;;;;;3.58;2.90;;;;;;;18.36;48.28;93960.00;5090982;28;20028;-87
2022/09/22 00:52:37;;;;;;;4.95;3.45;;;;;;;18.37;48.58;93966.97;5075242;28;20047;-88
2022/09/22 00:55:08;;;;;;;4.38;3.40;;;;;;;18.35;48.55;93961.25;5059311;28;20040;-88
2022/09/22 00:57:34;;;;;;;4.00;2.90;;;;;;;18.35;48.56;93962.00;5051756;28;20032;-88
2022/09/22 01:00:00;;;;;;;5.07;3.67;;;;;;;18.35;48.38;93962.00;5068019;28;20546;-88
2022/09/22 01:02:25;;;;;;;3.20;2.80;;;;;;;18.37;48.46;93956.00;5053859;28;20055;-90
2022/09/22 01:04:51;;;;;;;4.45;3.63;;;;;;;18.34;48.74;93941.34;5088478;28;20036;-88
2022/09/22 01:07:18;;;;;;;5.15;3.25;;;;;;;18.35;48.52;93951.03;5072670;28;20204;-89
2022/09/22 01:09:44;;;;;;;4.75;3.58;;;;;;;18.37;48.63;93948.56;5088452;28;20028;-88
2022/09/22 01:12:11;;;;;;;3.95;3.03;;;;;;;18.36;47.94;93936.13;5087932;28;20194;-89
2022/09/22 01:14:49;;;;;;;4.25;3.00;;;;;;;18.38;48.49;93932.88;5105697;28;20032;-88
2022/09/22 01:17:36;;;;;;;2.90;2.47;;;;;;;18.35;48.11;93934.63;5086651;28;20163;-90
2022/09/22 01:20:11;;;;;;;4.03;2.90;;;;;;;18.35;48.26;93937.34;5071672;28;20383;-88
2022/09/22 01:23:01;;;;;;;4.00;2.95;;;;;;;18.34;48.57;93933.13;5050922;28;20044;-88
2022/09/22 01:25:26;;;;;;;3.35;2.85;;;;;;;18.35;48.22;93931.13;5066770;28;20491;-88
2022/09/22 01:28:16;;;;;;;3.85;2.90;;;;;;;18.34;48.40;93929.63;5067290;28;20036;-88
2022/09/22 01:30:44;;;;;;;4.65;3.20;;;;;;;18.34;48.57;93921.44;5081779;28;20040;-88
2022/09/22 01:33:22;;;;;;;4.68;3.15;;;;;;;18.34;48.54;93919.44;5033674;28;20059;-88
2022/09/22 01:35:47;;;;;;;3.97;3.22;;;;;;;18.34;48.64;93921.44;5050715;28;20036;-90
2022/09/22 01:38:21;;;;;;;4.05;3.00;;;;;;;18.32;48.37;93918.44;5046068;28;20047;-89
2022/09/22 01:40:53;;;;;;;3.22;2.75;;;;;;;18.32;48.36;93912.97;5052505;28;20405;-87
2022/09/22 01:43:26;;;;;;;4.13;2.70;;;;;;;18.33;48.12;93914.47;5071080;28;20127;-89
2022/09/22 01:45:51;;;;;;;3.53;2.60;;;;;;;18.34;48.37;93913.22;5108141;28;20032;-88
2022/09/22 01:48:24;;;;;;;3.47;2.80;;;;;;;18.32;48.38;93913.72;5072627;28;20052;-87
2022/09/22 01:50:56;;;;;;;2.80;2.53;;;;;;;18.34;48.57;93913.22;5034348;28;20137;-88
2022/09/22 01:53:23;;;;;;;3.72;2.75;;;;;;;18.33;48.69;93909.72;5048424;28;20025;-88
2022/09/22 01:55:52;;;;;;;3.85;2.65;;;;;;;18.32;48.23;93907.50;5030589;28;20530;-88
2022/09/22 01:58:19;;;;;;;3.53;2.80;;;;;;;18.34;48.29;93918.69;5063068;28;20059;-89
2022/09/22 02:00:48;;;;;;;3.88;2.40;;;;;;;18.32;48.31;93912.97;5070866;28;20611;-88
2022/09/22 02:03:25;;;;;;;2.42;2.13;;;;;;;18.33;48.53;93917.94;5069856;28;20347;-89
2022/09/22 02:05:58;;;;;;;3.75;2.63;;;;;;;18.31;48.15;93904.00;5070794;28;20109;-88
2022/09/22 02:08:29;;;;;;;3.63;2.55;;;;;;;18.32;48.72;93902.00;5048669;28;20063;-88
2022/09/22 02:10:54;;;;;;;3.20;2.30;;;;;;;18.34;48.28;93913.97;5034032;28;20021;-87
2022/09/22 02:13:20;;;;;;;4.60;2.65;;;;;;;18.30;48.32;93926.41;5083116;28;20040;-87
2022/09/22 02:16:00;;;;;;;3.60;2.42;;;;;;;18.30;48.14;93931.88;5063517;28;20029;-89
2022/09/22 02:18:43;;;;;;;3.75;2.35;;;;;;;18.31;48.41;93934.13;5060236;28;20028;-88
2022/09/22 02:21:10;;;;;;;4.03;2.75;;;;;;;18.33;48.45;93933.63;5067634;28;20062;-88
2022/09/22 02:23:36;;;;;;;3.13;2.42;;;;;;;18.31;48.44;93927.88;5049125;28;20040;-88
2022/09/22 02:26:02;;;;;;;3.75;2.45;;;;;;;18.32;48.37;93924.66;5033601;28;20025;-89
2022/09/22 02:28:28;;;;;;;4.68;2.65;;;;;;;18.33;48.30;93937.09;5049119;28;20557;-88
2022/09/22 02:30:53;;;;;;;4.57;2.70;;;;;;;18.32;48.33;93935.59;5057745;28;20693;-87
2022/09/22 02:33:19;;;;;;;2.63;2.25;;;;;;;18.34;48.46;93924.16;5033487;28;20131;-88
2022/09/22 02:35:45;;;;;;;3.10;2.25;;;;;;;18.33;48.38;93923.41;5049864;28;20029;-88
2022/09/22 02:38:14;;;;;;;2.55;2.15;;;;;;;18.33;48.57;93926.16;5049202;28;20036;-88
2022/09/22 02:40:47;;;;;;;4.05;2.30;;;;;;;18.30;48.22;93915.44;5033818;28;20049;-88
2022/09/22 02:43:21;;;;;;;3.55;2.30;;;;;;;18.32;48.47;93902.00;5045532;28;20041;-89
2022/09/22 02:45:54;;;;;;;3.78;2.40;;;;;;;18.31;48.39;93898.53;5046552;28;20036;-87
2022/09/22 02:48:23;;;;;;;3.92;2.40;;;;;;;18.31;48.53;93893.06;5034757;28;20392;-88
2022/09/22 02:50:49;;;;;;;3.97;2.63;;;;;;;18.32;48.41;93891.06;5065820;28;20073;-88
2022/09/22 02:53:16;;;;;;;2.67;2.25;;;;;;;18.31;48.53;93914.22;5056815;28;20032;-88
2022/09/22 02:55:41;;;;;;;2.75;2.22;;;;;;;18.29;48.42;93911.22;5032893;28;20044;-88
2022/09/22 02:58:06;;;;;;;3.70;2.28;;;;;;;18.32;48.65;93902.75;5029067;28;20033;-87
2022/09/22 03:00:32;;;;;;;3.85;2.33;;;;;;;18.31;48.50;93908.72;5038127;28;20051;-88
2022/09/22 03:02:58;;;;;;;3.33;2.30;;;;;;;18.28;48.54;93907.72;5062502;28;20028;-90
2022/09/22 03:05:23;;;;;;;2.00;1.65;;;;;;;18.27;48.42;93902.75;5034199;28;20048;-88
2022/09/22 03:07:49;;;;;;;2.33;1.73;;;;;;;18.29;48.38;93911.22;5048435;28;20098;-88
2022/09/22 03:10:14;;;;;;;2.53;1.90;;;;;;;18.27;48.42;93891.81;5032779;28;20033;-89
2022/09/22 03:12:41;;;;;;;3.13;2.20;;;;;;;18.29;48.58;93894.78;5033966;28;20044;-87
2022/09/22 03:15:09;;;;;;;2.40;1.80;;;;;;;18.28;48.71;93883.09;5017501;28;20033;-88
2022/09/22 03:17:35;;;;;;;2.53;2.00;;;;;;;18.28;48.39;93866.69;5021230;28;20029;-87
2022/09/22 03:20:01;;;;;;;3.03;2.20;;;;;;;18.28;48.36;93868.66;5033564;28;20522;-88
2022/09/22 03:22:26;;;;;;;2.63;2.03;;;;;;;18.29;48.97;93883.84;5019931;28;20037;-87
2022/09/22 03:24:51;;;;;;;3.97;1.90;;;;;;;18.29;48.78;93887.34;5057991;28;20044;-88
2022/09/22 03:27:17;;;;;;;2.60;1.80;;;;;;;18.28;48.23;93888.56;5069544;28;20040;-88
2022/09/22 03:29:42;;;;;;;3.17;2.17;;;;;;;18.30;48.46;93899.03;5058668;28;20479;-87
2022/09/22 03:32:08;;;;;;;3.30;2.15;;;;;;;18.27;48.46;93900.75;5063877;28;20024;-88
2022/09/22 03:34:33;;;;;;;2.40;1.90;;;;;;;18.28;48.52;93891.31;5066212;28;20490;-90
2022/09/22 03:36:59;;;;;;;2.28;1.80;;;;;;;18.28;48.34;93887.84;5081976;28;20048;-90
2022/09/22 03:39:25;;;;;;;2.58;1.67;;;;;;;18.28;48.47;93896.03;5068972;28;20487;-88
2022/09/22 03:41:50;;;;;;;2.15;1.80;;;;;;;18.26;48.67;93885.59;5057898;28;20029;-88
2022/09/22 03:44:16;;;;;;;2.63;2.10;;;;;;;18.26;48.57;93885.59;5064710;28;20384;-88
2022/09/22 03:46:43;;;;;;;2.65;2.05;;;;;;;18.25;48.81;93884.09;5083444;28;20070;-89
2022/09/22 03:49:09;;;;;;;3.70;2.17;;;;;;;18.27;48.75;93867.94;5051236;28;20464;-87
2022/09/22 03:51:35;;;;;;;2.30;1.75;;;;;;;18.27;48.42;93870.66;5070661;28;20032;-90
2022/09/22 03:54:01;;;;;;;2.35;1.80;;;;;;;18.27;48.89;93878.88;5073757;28;20032;-89
2022/09/22 03:56:26;;;;;;;1.98;1.75;;;;;;;18.26;48.61;93885.59;5055515;28;20440;-89
2022/09/22 03:58:51;;;;;;;9.70;2.08;;;;;;;18.27;48.90;93876.13;5052225;28;20514;-88
2022/09/22 04:01:17;;;;;;;2.47;1.92;;;;;;;18.26;48.34;93885.59;5063698;28;20055;-89
2022/09/22 04:03:42;;;;;;;4.25;2.35;;;;;;;18.12;45.94;93892.06;5077799;28;20051;-89
2022/09/22 04:06:08;;;;;;;5.85;3.20;;;;;;;18.09;45.02;93885.59;5063867;28;20048;-88
2022/09/22 04:08:33;;;;;;;7.43;3.85;;;;;;;18.01;43.84;93884.59;5070409;28;20036;-88
2022/09/22 04:10:59;;;;;;;4.60;3.45;;;;;;;17.98;42.66;93873.88;5066432;28;20411;-89
2022/09/22 04:13:25;;;;;;;6.35;3.55;;;;;;;17.94;41.88;93873.41;5068969;28;20733;-88
2022/09/22 04:15:50;;;;;;;4.20;3.10;;;;;;;17.88;42.10;93881.59;5071839;28;20146;-88
2022/09/22 04:18:16;;;;;;;7.28;3.25;;;;;;;17.85;42.09;93887.31;5069069;28;20033;-88
2022/09/22 04:20:43;;;;;;;6.43;3.38;;;;;;;17.78;41.52;93877.59;5071301;28;20062;-87
2022/09/22 04:23:12;;;;;;;7.22;3.03;;;;;;;17.74;41.38;93879.84;5051782;28;20036;-88
2022/09/22 04:25:37;;;;;;;9.55;3.22;;;;;;;17.68;41.28;93877.09;5081965;28;20072;-88
2022/09/22 04:28:04;;;;;;;9.43;2.80;;;;;;;17.77;42.02;93881.56;5071919;28;20036;-87
2022/09/22 04:30:30;;;;;;;22.38;3.35;;;;;;;17.83;42.09;93876.13;5035025;28;20124;-87
2022/09/22 04:32:55;;;;;;;20.08;4.43;;;;;;;17.79;42.47;93879.09;5065821;28;20063;-88
2022/09/22 04:35:20;;;;;;;60.95;32.45;;;;;;;17.83;42.49;93873.38;5051409;28;20040;-87
2022/09/22 04:37:46;;;;;;;245.52;180.15;;;;;;;17.92;43.24;93879.38;5070619;28;20313;-88
2022/09/22 04:40:11;;;;;;;33.30;17.92;;;;;;;17.95;43.35;93877.63;5034812;28;20792;-91
2022/09/22 04:42:37;;;;;;;121.72;85.55;;;;;;;17.98;43.52;93880.09;5051927;28;20063;-87
2022/09/22 04:45:05;;;;;;;79.10;49.92;;;;;;;18.01;43.24;93881.84;5047914;28;20036;-87
2022/09/22 04:47:31;;;;;;;32.13;12.68;;;;;;;18.01;44.47;93890.06;5070694;28;20293;-88
2022/09/22 04:49:56;;;;;;;26.23;11.30;;;;;;;18.06;44.38;93881.13;5046449;28;20695;-88
2022/09/22 04:52:22;;;;;;;20.63;9.77;;;;;;;18.07;44.68;93887.34;5049354;28;20158;-88
2022/09/22 04:54:47;;;;;;;28.67;11.45;;;;;;;18.05;44.95;93887.09;5062390;28;20096;-88
2022/09/22 04:57:13;;;;;;;36.00;17.17;;;;;;;18.00;43.73;93888.56;5045869;28;20043;-87
2022/09/22 04:59:38;;;;;;;35.58;16.35;;;;;;;17.96;44.02;93879.13;5061407;28;20140;-88
2022/09/22 05:02:04;;;;;;;54.13;17.02;;;;;;;17.97;44.35;93892.28;5066777;28;20059;-87
2022/09/22 05:04:30;;;;;;;52.38;19.05;;;;;;;18.01;44.74;93900.25;5079242;28;20414;-85
2022/09/22 05:06:55;;;;;;;66.22;22.00;;;;;;;18.03;44.67;93895.78;5057685;28;20044;-86
2022/09/22 05:09:21;;;;;;;111.72;34.78;;;;;;;18.06;44.42;93894.03;5049242;28;20040;-87
2022/09/22 05:11:49;;;;;;;116.72;46.97;;;;;;;18.02;44.55;93904.47;5079445;28;20093;-86
2022/09/22 05:14:14;;;;;;;125.60;52.72;;;;;;;18.04;44.79;93905.47;5053347;28;20071;-88
2022/09/22 05:16:40;;;;;;;114.10;53.10;;;;;;;18.05;43.95;93908.97;5098772;28;20040;-87
2022/09/22 05:19:08;;;;;;;113.60;50.10;;;;;;;18.08;44.15;93894.31;5073329;28;20394;-86
2022/09/22 05:21:34;;;;;;;108.43;48.55;;;;;;;18.10;44.16;93889.09;5043043;28;20456;-87
2022/09/22 05:23:59;;;;;;;104.95;50.47;;;;;;;18.12;44.35;93897.53;5061072;28;20037;-86
2022/09/22 05:26:25;;;;;;;105.72;54.45;;;;;;;18.09;45.13;93902.00;5065464;28;20048;-87
2022/09/22 05:28:50;;;;;;;121.25;61.38;;;;;;;18.12;45.08;93905.75;5083391;28;20375;-86
2022/09/22 05:31:16;;;;;;;119.45;62.33;;;;;;;18.15;45.21;93902.03;5063056;28;20052;-89
2022/09/22 05:33:41;;;;;;;121.93;64.03;;;;;;;18.14;45.04;93906.00;5062736;28;20075;-87
2022/09/22 05:36:07;;;;;;;122.97;64.85;;;;;;;18.10;45.17;93906.25;5034241;28;20037;-87
2022/09/22 05:38:32;;;;;;;92.20;49.63;;;;;;;18.15;44.93;93908.25;5007885;28;20041;-86
2022/09/22 05:40:58;;;;;;;117.20;55.13;;;;;;;18.16;45.73;93909.00;5042022;28;20072;-87
2022/09/22 05:43:23;;;;;;;109.32;53.03;;;;;;;18.10;44.91;93911.72;4994143;28;20037;-88
2022/09/22 05:45:49;;;;;;;75.40;33.10;;;;;;;18.03;44.31;93919.66;5007425;28;20103;-88
2022/09/22 05:48:14;;;;;;;88.00;33.70;;;;;;;18.03;44.11;93906.72;5038985;28;20053;-90
2022/09/22 05:50:40;;;;;;;84.65;34.65;;;;;;;18.07;43.70;93914.69;5026955;28;20249;-87
2022/09/22 05:53:07;;;;;;;100.97;36.58;;;;;;;18.06;43.69;93918.66;5027743;28;20110;-87
2022/09/22 05:55:32;;;;;;;139.48;44.33;;;;;;;18.07;44.15;93920.16;5052580;28;20033;-86
2022/09/22 05:57:58;;;;;;;126.43;42.65;;;;;;;18.09;44.47;93920.41;5043365;28;20127;-85
2022/09/22 06:00:24;;;;;;;137.73;47.00;;;;;;;18.10;44.79;93922.66;5058268;28;20040;-86
2022/09/22 06:02:49;;;;;;;152.98;53.67;;;;;;;18.11;44.90;93918.69;5029617;28;20056;-87
2022/09/22 06:05:15;;;;;;;120.32;49.00;;;;;;;18.11;44.92;93926.13;5020628;28;20453;-88
2022/09/22 06:07:40;;;;;;;143.70;57.95;;;;;;;18.15;45.80;93916.44;5060774;28;20044;-84
2022/09/22 06:10:06;;;;;;;134.00;53.47;;;;;;;18.16;45.57;93917.19;5082405;28;20047;-86
2022/09/22 06:12:32;;;;;;;115.28;52.60;;;;;;;18.20;46.07;93922.41;5086643;28;20043;-87
2022/09/22 06:14:57;;;;;;;136.77;63.33;;;;;;;18.21;45.74;93919.16;5082604;28;20041;-85
2022/09/22 06:17:23;;;;;;;119.13;52.80;;;;;;;18.23;45.57;93921.41;5065312;28;20337;-86
2022/09/22 06:19:49;;;;;;;105.07;50.17;;;;;;;18.23;45.77;93919.41;5061351;28;20575;-87
2022/09/22 06:22:15;;;;;;;116.88;53.13;;;;;;;18.27;45.87;93925.41;5064161;28;20044;-84
2022/09/22 06:24:41;;;;;;;105.63;47.92;;;;;;;18.34;46.77;93930.38;5073258;28;20040;-86
2022/09/22 06:27:06;;;;;;;123.95;57.10;;;;;;;18.35;45.71;93933.88;5056087;28;20044;-88
2022/09/22 06:29:32;;;;;;;107.32;51.85;;;;;;;18.27;45.86;93928.13;5044408;28;20048;-86
2022/09/22 06:31:57;;;;;;;107.70;52.83;;;;;;;18.29;45.60;93920.19;5060790;28;20118;-85
2022/09/22 06:34:22;;;;;;;156.63;62.88;;;;;;;18.28;45.65;93923.41;5070152;28;21133;-86
2022/09/22 06:36:48;;;;;;;140.52;57.72;;;;;;;18.29;45.32;93919.44;5072859;28;20113;-87
2022/09/22 06:39:14;;;;;;;139.43;67.70;;;;;;;18.29;46.00;93916.69;5065154;27;20067;-86
2022/09/22 06:41:39;;;;;;;126.97;59.10;;;;;;;18.26;45.64;93926.63;5068975;28;20054;-87
2022/09/22 06:44:05;;;;;;;109.35;57.47;;;;;;;18.31;45.75;93930.63;5076188;28;20028;-87
2022/09/22 06:46:34;;;;;;;149.20;73.00;;;;;;;18.30;45.93;93932.63;5084913;28;20040;-88
2022/09/22 06:49:00;;;;;;;181.32;93.43;;;;;;;18.29;46.02;93930.38;5081409;28;20052;-89
2022/09/22 06:51:26;;;;;;;178.60;91.25;;;;;;;18.28;45.72;93932.38;5066720;28;20040;-88
2022/09/22 06:53:53;;;;;;;185.48;95.40;;;;;;;18.29;45.51;93925.66;5080343;28;20070;-88
2022/09/22 06:56:20;;;;;;;166.43;83.85;;;;;;;18.28;45.86;93934.34;5079263;28;20048;-89
2022/09/22 06:58:48;;;;;;;162.38;79.20;;;;;;;18.29;46.24;93933.13;5075158;28;20048;-87
2022/09/22 07:01:14;;;;;;;184.15;91.18;;;;;;;18.34;45.79;93935.13;5083774;28;20053;-88
2022/09/22 07:03:42;;;;;;;190.73;98.85;;;;;;;18.31;46.01;93925.91;5044636;28;20123;-88
2022/09/22 07:06:07;;;;;;;170.40;89.30;;;;;;;18.31;45.58;93927.88;5056257;28;20036;-87
2022/09/22 07:08:34;;;;;;;159.75;80.65;;;;;;;18.34;46.22;93924.91;5064110;28;20040;-87
2022/09/22 07:11:01;;;;;;;150.85;83.00;;;;;;;18.33;46.06;93936.34;5063852;28;20131;-86
2022/09/22 07:13:30;;;;;;;159.68;81.55;;;;;;;18.33;46.06;93930.88;5042565;28;20040;-89
2022/09/22 07:16:10;;;;;;;143.95;77.38;;;;;;;18.32;45.91;93937.59;5063836;28;20154;-89
2022/09/22 07:18:39;;;;;;;135.63;70.97;;;;;;;18.31;46.13;93919.69;5064964;28;20036;-89
2022/09/22 07:21:07;;;;;;;143.88;71.07;;;;;;;18.33;45.75;93928.88;5063612;28;20059;-86
2022/09/22 07:23:34;;;;;;;154.05;78.78;;;;;;;18.33;45.69;93928.88;5054440;28;20041;-87
2022/09/22 07:26:01;;;;;;;156.02;80.93;;;;;;;18.33;46.10;93931.63;5043489;28;20045;-87
2022/09/22 07:28:27;;;;;;;159.98;85.00;;;;;;;18.33;46.01;93937.09;5064799;28;20044;-87
2022/09/22 07:30:56;;;;;;;148.18;79.25;;;;;;;18.32;45.85;93932.88;5065452;28;20048;-86
2022/09/22 07:33:22;;;;;;;180.07;91.40;;;;;;;18.32;46.42;93943.81;5040147;28;20048;-87
2022/09/22 07:36:00;;;;;;;194.48;94.68;;;;;;;18.34;46.45;93944.06;5073054;28;20591;-85
2022/09/22 07:38:29;;;;;;;186.48;100.22;;;;;;;18.35;46.09;93944.81;5053858;28;20032;-89
2022/09/22 07:40:55;;;;;;;186.45;96.60;;;;;;;18.38;46.32;93939.09;5070566;28;20089;-90
2022/09/22 07:43:20;;;;;;;176.90;93.28;;;;;;;18.36;46.15;93936.13;5072428;28;20353;-85
2022/09/22 07:45:56;;;;;;;170.50;93.68;;;;;;;18.36;46.58;93941.59;5079120;28;20059;-89
2022/09/22 07:48:42;;;;;;;178.93;94.65;;;;;;;18.36;46.86;93936.13;5045651;28;20049;-87
2022/09/22 07:51:11;;;;;;;230.25;96.05;;;;;;;18.32;46.51;93946.56;5064957;28;20047;-85
2022/09/22 07:53:38;;;;;;;233.43;92.90;;;;;;;18.33;46.33;93950.78;5077673;28;20093;-86
2022/09/22 07:56:05;;;;;;;237.38;99.57;;;;;;;18.34;46.13;93946.81;5050097;28;20032;-86
2022/09/22 07:58:31;;;;;;;268.52;100.88;;;;;;;18.38;46.07;93943.81;5068312;28;20685;-86
2022/09/22 08:00:57;;;;;;;247.60;93.70;;;;;;;18.35;46.64;93942.81;5090869;28;20071;-87
2022/09/22 08:03:23;;;;;;;216.75;91.75;;;;;;;18.40;46.88;93949.56;5080240;27;20130;-88
2022/09/22 08:05:52;;;;;;;207.10;95.88;;;;;;;18.39;46.46;93948.81;5063013;28;20056;-87
2022/09/22 08:08:18;;;;;;;254.40;102.15;;;;;;;18.41;46.28;93949.03;5047319;28;20041;-89
2022/09/22 08:10:43;;;;;;;225.18;96.53;;;;;;;18.41;46.23;93948.28;5075231;28;20478;-88
2022/09/22 08:13:10;;;;;;;185.50;81.22;;;;;;;18.42;46.73;93938.81;5088306;28;20054;-86
2022/09/22 08:15:35;;;;;;;222.00;94.10;;;;;;;18.39;46.64;93948.06;5039525;28;20052;-89
2022/09/22 08:18:02;;;;;;;203.15;89.68;;;;;;;18.43;46.47;93949.28;5076099;28;20040;-86
2022/09/22 08:20:28;;;;;;;219.32;88.00;;;;;;;18.40;46.29;93946.81;5056222;28;20071;-86
2022/09/22 08:22:56;;;;;;;213.55;88.57;;;;;;;18.41;46.69;93951.00;5059758;28;20033;-89
2022/09/22 08:25:24;;;;;;;198.13;83.15;;;;;;;18.42;46.60;93958.00;5059242;28;20125;-85
2022/09/22 08:27:50;;;;;;;234.65;94.40;;;;;;;18.42;46.51;93950.53;5051678;28;20037;-87
2022/09/22 08:30:16;;;;;;;188.77;84.80;;;;;;;18.42;46.57;93952.50;5046570;28;20171;-86
2022/09/22 08:32:41;;;;;;;204.45;89.38;;;;;;;18.37;46.67;93956.75;5084945;28;20040;-85
2022/09/22 08:35:07;;;;;;;231.18;90.70;;;;;;;18.41;46.43;93956.50;5068091;28;20051;-87
2022/09/22 08:37:33;;;;;;;212.50;89.88;;;;;;;18.41;47.00;93953.75;5065331;28;20382;-83
2022/09/22 08:39:58;;;;;;;244.60;92.03;;;;;;;18.43;47.00;93959.47;5092289;28;20588;-87
2022/09/22 08:42:27;;;;;;;223.32;81.95;;;;;;;18.43;46.65;93948.53;5074872;28;20767;-88
2022/09/22 08:44:52;;;;;;;209.60;84.85;;;;;;;18.43;46.51;93951.28;5079806;28;20098;-86
2022/09/22 08:51:50;;;;;;;212.75;83.07;;;;;;;18.45;46.59;93959.72;5087155;28;20036;-86
2022/09/22 08:53:05;;;;;;;225.00;80.03;;;;;;;18.41;46.91;93953.75;5065589;28;20717;-88
2022/09/22 08:55:30;;;;;;;200.88;75.38;;;;;;;18.42;46.82;93945.03;5071054;28;20686;-87
2022/09/22 08:58:21;;;;;;;199.90;76.53;;;;;;;18.41;47.04;93945.53;5070938;28;20122;-88
2022/09/22 09:00:49;;;;;;;179.55;69.38;;;;;;;18.41;46.95;93951.75;5068589;28;20036;-86
2022/09/22 09:03:43;;;;;;;195.18;69.07;;;;;;;18.39;46.55;93951.53;5046430;28;20454;-87
2022/09/22 09:06:17;;;;;;;189.32;62.30;;;;;;;18.40;47.14;93946.81;5097410;27;20085;-87
2022/09/22 09:09:00;;;;;;;180.60;60.17;;;;;;;18.41;46.77;93953.75;5063152;28;20047;-88
2022/09/22 09:11:47;;;;;;;174.77;53.30;;;;;;;18.38;46.07;93949.31;5088209;28;20047;-88
2022/09/22 09:14:40;;;;;;;104.22;35.65;;;;;;;18.35;45.28;93958.50;5050702;28;20050;-88
2022/09/22 09:17:11;;;;;;;84.07;29.65;;;;;;;18.20;45.25;93945.03;5047166;28;20032;-88
2022/09/22 09:19:42;;;;;;;73.50;21.55;;;;;;;18.17;45.22;93950.78;5071460;28;20102;-88
2022/09/22 09:22:26;;;;;;;66.03;19.85;;;;;;;18.14;44.99;93947.03;5030340;28;20113;-86
2022/09/22 09:25:15;;;;;;;45.53;15.70;;;;;;;18.14;45.23;93945.06;5069552;28;20032;-86
2022/09/22 09:27:42;;;;;;;42.17;13.40;;;;;;;18.11;44.76;93940.56;5080569;28;20040;-86
2022/09/22 09:30:16;;;;;;;25.13;10.60;;;;;;;18.05;44.38;93950.75;5072080;28;20040;-87
2022/09/22 09:32:55;;;;;;;22.75;9.55;;;;;;;18.04;44.54;93940.31;5057338;28;20053;-88
2022/09/22 09:35:27;;;;;;;25.83;9.25;;;;;;;17.99;44.62;93954.72;5100002;28;20128;-87
2022/09/22 09:37:57;;;;;;;26.13;8.45;;;;;;;17.97;44.40;93946.28;5085954;28;20077;-87
2022/09/22 09:40:23;;;;;;;13.40;7.22;;;;;;;17.95;44.39;93952.25;5054905;28;20044;-88
2022/09/22 09:42:57;;;;;;;12.45;7.35;;;;;;;17.93;44.04;93943.78;5079908;28;20395;-87
2022/09/22 09:45:25;;;;;;;17.05;6.43;;;;;;;17.97;44.57;93947.00;5081354;28;20134;-86
2022/09/22 09:48:09;;;;;;;1999.90;375.92;;;;;;;17.97;44.13;93941.53;5074083;28;20155;-88
2022/09/22 09:50:36;;;;;;;1375.22;219.80;;;;;;;17.90;44.09;93944.03;5059351;28;20041;-88
2022/09/22 09:53:02;;;;;;;792.97;113.63;;;;;;;17.86;44.06;93946.25;5036975;28;20055;-88
2022/09/22 09:55:27;;;;;;;862.55;122.63;;;;;;;17.81;44.81;93940.25;5064968;28;20404;-89
2022/09/22 10:00:29;;;;;;;686.55;85.72;;;;;;;17.88;44.53;93941.03;5053863;28;20518;-88
2022/09/22 10:01:00;;;;;;;313.75;42.47;;;;;;;17.89;45.27;93940.53;5071640;28;20146;-89
2022/09/22 10:03:35;;;;;;;225.60;32.15;;;;;;;17.92;45.53;93936.81;5045818;28;20429;-89
2022/09/22 10:06:05;;;;;;;192.98;30.25;;;;;;;17.87;45.23;93939.53;5054714;28;20554;-88
2022/09/22 10:08:33;;;;;;;187.15;27.63;;;;;;;17.89;45.37;93940.53;5061477;28;20042;-88
2022/09/22 10:11:00;;;;;;;171.18;25.30;;;;;;;17.80;45.14;93936.03;5061423;28;20605;-88
2022/09/22 10:13:32;;;;;;;129.50;20.33;;;;;;;17.80;45.02;93930.56;5064631;28;20032;-87
2022/09/22 10:16:00;;;;;;;127.13;19.92;;;;;;;17.81;45.26;93929.31;5029212;28;20173;-87
2022/09/22 10:18:31;;;;;;;125.25;19.05;;;;;;;17.77;44.62;93931.53;5066847;28;20051;-90
2022/09/22 10:21:17;;;;;;;115.45;18.52;;;;;;;17.83;44.86;93926.09;5036844;28;20128;-87
2022/09/22 10:23:45;;;;;;;98.07;18.38;;;;;;;17.86;45.00;93924.38;5069887;28;20569;-88
2022/09/22 10:26:27;;;;;;;89.07;16.42;;;;;;;17.79;44.95;93931.06;5067313;28;20056;-88
2022/09/22 10:29:11;;;;;;;78.10;14.23;;;;;;;17.79;44.82;93923.59;5084528;28;20550;-87
2022/09/22 10:31:37;;;;;;;62.08;13.32;;;;;;;17.78;45.03;93922.09;5092452;28;20048;-87
2022/09/22 10:34:02;;;;;;;57.13;13.18;;;;;;;17.79;44.87;93922.84;5042203;28;20036;-88
2022/09/22 10:36:28;;;;;;;61.28;12.95;;;;;;;17.81;44.73;93920.38;5064403;28;20041;-87
2022/09/22 10:38:54;;;;;;;58.72;11.45;;;;;;;17.84;44.67;93929.56;5046339;28;20533;-88
2022/09/22 10:41:27;;;;;;;51.78;12.57;;;;;;;17.84;45.06;93924.84;5058465;28;20571;-88
2022/09/22 10:43:59;;;;;;;46.05;12.27;;;;;;;17.87;44.75;93918.41;5060269;28;20116;-87
2022/09/22 10:46:27;;;;;;;50.88;11.73;;;;;;;17.89;44.62;93923.38;5074901;28;20039;-88
2022/09/22 10:49:12;;;;;;;42.55;10.60;;;;;;;17.92;44.99;93917.66;5086336;28;20399;-87
2022/09/22 10:51:43;;;;;;;59.05;12.40;;;;;;;17.95;45.06;93913.19;5079200;28;20082;-87
2022/09/22 10:54:14;;;;;;;;;;;;;;;18.00;44.91;93910.44;5084530;28;20036;-88
2022/09/22 10:56:40;;;;;;;;;;;;;;;18.04;44.89;93907.47;5087190;28;19926;-88
2022/09/22 10:59:21;;;;;;;55.55;13.18;;;;;;;18.02;44.84;93910.69;5063833;28;20693;-88
2022/09/22 11:02:06;;;;;;;45.38;13.75;;;;;;;18.04;44.79;93905.47;5065771;28;20123;-87
2022/09/22 11:04:55;;;;;;;54.65;13.93;;;;;;;18.03;44.95;93905.97;5068028;28;20079;-87
2022/09/22 11:13:36;;;;;;;46.55;15.75;;;;;;;18.07;44.80;93901.75;5062225;28;20116;-88
2022/09/22 11:16:12;;;;;;;57.35;15.25;;;;;;;18.09;44.59;93893.81;5079969;28;20478;-86
2022/09/22 11:19:04;;;;;;;53.60;15.98;;;;;;;18.11;45.30;93894.06;5084631;28;20375;-86
2022/09/22 11:21:52;;;;;;;49.58;15.10;;;;;;;18.14;44.86;93893.06;5078527;28;20044;-87
2022/09/22 11:24:31;;;;;;;43.45;15.63;;;;;;;18.17;44.89;93893.31;5049231;28;20159;-87
2022/09/22 11:26:58;;;;;;;46.50;16.67;;;;;;;18.17;45.09;93887.84;5067154;28;20591;-87
2022/09/22 11:29:40;;;;;;;54.83;16.65;;;;;;;18.18;45.13;93895.56;5084883;28;20427;-87
2022/09/22 11:32:22;;;;;;;60.42;17.80;;;;;;;18.18;44.81;93890.09;5081819;28;20135;-90
2022/09/22 11:35:06;;;;;;;62.05;18.33;;;;;;;18.23;44.90;93889.31;5082235;28;20063;-87
2022/09/22 11:37:40;;;;;;;109.95;21.83;;;;;;;18.23;44.99;93891.31;5068531;28;20060;-89
2022/09/22 11:40:28;;;;;;;156.32;26.35;;;;;;;18.22;44.98;93885.09;5066908;28;20061;-88